sensor_id;sensor_type;location;lat;lon;timestamp;P1;P2;P0
84339;PMS7003;74521;45.618;5.212;2024-01-15T00:00:03;7.50;6.50;4.00
84339;PMS7003;74521;45.618;5.212;2024-01-15T00:02:33;8.75;8.50;6.25
84339;PMS7003;74521;45.618;5.212;2024-01-15T00:04:59;7.00;7.00;5.00
84339;PMS7003;74521;45.618;5.212;2024-01-15T00:07:26;9.00;7.50;5.00
84339;PMS7003;74521;45.618;5.212;2024-01-15T00:09:53;10.00;7.50;6.00
84339;PMS7003;74521;45.618;5.212;2024-01-15T00:12:19;7.25;6.00;3.00
84339;PMS7003;74521;45.618;5.212;2024-01-15T00:14:46;6.50;6.50;5.00
84339;PMS7003;74521;45.618;5.212;2024-01-15T00:17:13;9.00;6.00;5.00
84339;PMS7003;74521;45.618;5.212;2024-01-15T00:19:41;7.25;6.00;5.00
84339;PMS7003;74521;45.618;5.212;2024-01-15T00:22:07;7.00;5.75;4.00
84339;PMS7003;74521;45.618;5.212;2024-01-15T00:24:34;7.25;6.00;4.75
84339;PMS7003;74521;45.618;5.212;2024-01-15T00:27:01;8.50;7.75;5.00
84339;PMS7003;74521;45.618;5.212;2024-01-15T00:29:27;6.00;6.00;5.00
84339;PMS7003;74521;45.618;5.212;2024-01-15T00:31:54;8.00;7.25;5.00
84339;PMS7003;74521;45.618;5.212;2024-01-15T00:34:21;8.25;7.00;5.00
84339;PMS7003;74521;45.618;5.212;2024-01-15T00:36:49;7.25;7.00;5.50
84339;PMS7003;74521;45.618;5.212;2024-01-15T00:39:15;7.50;6.00;4.00
84339;PMS7003;74521;45.618;5.212;2024-01-15T00:41:42;6.75;6.75;5.25
84339;PMS7003;74521;45.618;5.212;2024-01-15T00:44:09;12.00;7.00;5.00
84339;PMS7003;74521;45.618;5.212;2024-01-15T00:46:41;7.75;7.75;6.00
84339;PMS7003;74521;45.618;5.212;2024-01-15T00:49:09;7.50;5.25;4.00
84339;PMS7003;74521;45.618;5.212;2024-01-15T00:51:36;6.00;6.00;4.00
84339;PMS7003;74521;45.618;5.212;2024-01-15T00:54:04;5.00;5.00;4.00
84339;PMS7003;74521;45.618;5.212;2024-01-15T00:56:31;7.50;7.00;5.00
84339;PMS7003;74521;45.618;5.212;2024-01-15T00:58:58;7.00;7.00;5.00
84339;PMS7003;74521;45.618;5.212;2024-01-15T01:01:24;10.75;7.50;5.00
84339;PMS7003;74521;45.618;5.212;2024-01-15T01:03:51;10.25;6.75;5.00
84339;PMS7003;74521;45.618;5.212;2024-01-15T01:06:18;10.50;6.00;4.25
84339;PMS7003;74521;45.618;5.212;2024-01-15T01:08:44;7.75;6.00;5.00
84339;PMS7003;74521;45.618;5.212;2024-01-15T01:11:13;9.75;6.75;5.00
84339;PMS7003;74521;45.618;5.212;2024-01-15T01:13:40;5.75;5.75;3.50
84339;PMS7003;74521;45.618;5.212;2024-01-15T01:16:07;8.75;5.00;5.00
84339;PMS7003;74521;45.618;5.212;2024-01-15T01:18:34;10.00;6.75;4.75
84339;PMS7003;74521;45.618;5.212;2024-01-15T01:21:01;7.75;6.75;4.50
84339;PMS7003;74521;45.618;5.212;2024-01-15T01:23:28;12.00;7.25;5.00
84339;PMS7003;74521;45.618;5.212;2024-01-15T01:25:54;4.75;4.00;2.75
84339;PMS7003;74521;45.618;5.212;2024-01-15T01:28:22;9.25;7.00;6.00
84339;PMS7003;74521;45.618;5.212;2024-01-15T01:30:49;7.25;6.25;4.50
84339;PMS7003;74521;45.618;5.212;2024-01-15T01:33:15;5.00;5.00;4.00
84339;PMS7003;74521;45.618;5.212;2024-01-15T01:35:42;7.75;6.75;5.00
84339;PMS7003;74521;45.618;5.212;2024-01-15T01:38:10;8.50;6.50;4.00
84339;PMS7003;74521;45.618;5.212;2024-01-15T01:40:36;8.25;6.50;5.25
84339;PMS7003;74521;45.618;5.212;2024-01-15T01:43:04;7.75;5.50;4.00
84339;PMS7003;74521;45.618;5.212;2024-01-15T01:45:32;8.00;4.00;3.00
84339;PMS7003;74521;45.618;5.212;2024-01-15T01:47:59;9.00;9.00;6.00
84339;PMS7003;74521;45.618;5.212;2024-01-15T01:50:26;7.50;5.50;4.00
84339;PMS7003;74521;45.618;5.212;2024-01-15T01:52:54;10.00;6.00;4.50
84339;PMS7003;74521;45.618;5.212;2024-01-15T01:55:21;6.25;6.25;5.75
84339;PMS7003;74521;45.618;5.212;2024-01-15T01:57:50;6.00;5.75;4.00
84339;PMS7003;74521;45.618;5.212;2024-01-15T02:00:17;6.75;6.75;5.50
84339;PMS7003;74521;45.618;5.212;2024-01-15T02:02:45;6.00;4.25;3.50
84339;PMS7003;74521;45.618;5.212;2024-01-15T02:05:12;8.00;6.50;5.00
84339;PMS7003;74521;45.618;5.212;2024-01-15T02:07:41;6.75;6.75;4.00
84339;PMS7003;74521;45.618;5.212;2024-01-15T02:10:07;6.50;6.25;5.00
84339;PMS7003;74521;45.618;5.212;2024-01-15T02:12:34;7.00;6.00;4.00
84339;PMS7003;74521;45.618;5.212;2024-01-15T02:15:01;9.75;7.00;6.00
84339;PMS7003;74521;45.618;5.212;2024-01-15T02:17:28;5.75;5.25;4.00
84339;PMS7003;74521;45.618;5.212;2024-01-15T02:19:56;9.50;8.00;4.00
84339;PMS7003;74521;45.618;5.212;2024-01-15T02:22:23;7.50;5.00;4.00
84339;PMS7003;74521;45.618;5.212;2024-01-15T02:24:51;6.25;5.50;4.00
84339;PMS7003;74521;45.618;5.212;2024-01-15T02:27:18;7.25;6.00;4.25
84339;PMS7003;74521;45.618;5.212;2024-01-15T02:29:46;3.75;3.75;3.00
84339;PMS7003;74521;45.618;5.212;2024-01-15T02:32:14;6.75;6.25;5.00
84339;PMS7003;74521;45.618;5.212;2024-01-15T02:34:40;7.50;7.00;5.25
84339;PMS7003;74521;45.618;5.212;2024-01-15T02:37:07;4.00;4.00;3.00
84339;PMS7003;74521;45.618;5.212;2024-01-15T02:39:34;5.50;5.50;4.00
84339;PMS7003;74521;45.618;5.212;2024-01-15T02:42:02;9.50;7.00;5.00
84339;PMS7003;74521;45.618;5.212;2024-01-15T02:44:28;10.25;8.25;5.00
84339;PMS7003;74521;45.618;5.212;2024-01-15T02:46:55;8.25;6.75;4.50
84339;PMS7003;74521;45.618;5.212;2024-01-15T02:49:22;11.50;8.00;6.00
84339;PMS7003;74521;45.618;5.212;2024-01-15T02:51:48;8.00;6.25;4.00
84339;PMS7003;74521;45.618;5.212;2024-01-15T02:54:15;6.00;4.00;4.00
84339;PMS7003;74521;45.618;5.212;2024-01-15T02:56:42;6.00;5.00;4.00
84339;PMS7003;74521;45.618;5.212;2024-01-15T02:59:10;7.50;5.00;3.25
84339;PMS7003;74521;45.618;5.212;2024-01-15T03:01:36;5.25;5.25;4.00
84339;PMS7003;74521;45.618;5.212;2024-01-15T03:04:03;7.25;7.25;5.25
84339;PMS7003;74521;45.618;5.212;2024-01-15T03:06:30;7.00;5.75;4.75
84339;PMS7003;74521;45.618;5.212;2024-01-15T03:08:56;7.75;6.00;5.00
84339;PMS7003;74521;45.618;5.212;2024-01-15T03:11:23;9.25;5.25;5.00
84339;PMS7003;74521;45.618;5.212;2024-01-15T03:13:50;7.00;5.00;4.00
84339;PMS7003;74521;45.618;5.212;2024-01-15T03:16:18;12.00;7.00;5.00
84339;PMS7003;74521;45.618;5.212;2024-01-15T03:18:45;7.25;5.00;4.00
84339;PMS7003;74521;45.618;5.212;2024-01-15T03:21:12;6.50;4.25;4.00
84339;PMS7003;74521;45.618;5.212;2024-01-15T03:23:39;9.25;5.25;4.50
84339;PMS7003;74521;45.618;5.212;2024-01-15T03:26:05;8.75;6.75;5.00
84339;PMS7003;74521;45.618;5.212;2024-01-15T03:28:32;8.00;6.25;4.00
84339;PMS7003;74521;45.618;5.212;2024-01-15T03:30:59;7.00;4.00;3.00
84339;PMS7003;74521;45.618;5.212;2024-01-15T03:33:27;8.00;4.75;3.50
84339;PMS7003;74521;45.618;5.212;2024-01-15T03:35:53;4.00;4.00;3.00
84339;PMS7003;74521;45.618;5.212;2024-01-15T03:38:20;7.50;6.00;4.00
84339;PMS7003;74521;45.618;5.212;2024-01-15T03:40:47;9.75;7.25;5.25
84339;PMS7003;74521;45.618;5.212;2024-01-15T03:43:14;7.00;5.00;4.00
84339;PMS7003;74521;45.618;5.212;2024-01-15T03:45:40;7.75;6.00;4.00
84339;PMS7003;74521;45.618;5.212;2024-01-15T03:48:07;5.00;4.25;4.00
84339;PMS7003;74521;45.618;5.212;2024-01-15T03:50:35;7.00;7.00;5.00
84339;PMS7003;74521;45.618;5.212;2024-01-15T03:53:02;7.75;7.00;4.75
84339;PMS7003;74521;45.618;5.212;2024-01-15T03:55:28;8.00;6.00;4.75
84339;PMS7003;74521;45.618;5.212;2024-01-15T03:57:55;8.00;6.00;5.00
84339;PMS7003;74521;45.618;5.212;2024-01-15T04:00:22;7.50;5.75;4.00
84339;PMS7003;74521;45.618;5.212;2024-01-15T04:02:48;7.00;6.00;4.00
84339;PMS7003;74521;45.618;5.212;2024-01-15T04:05:15;5.75;5.50;4.25
84339;PMS7003;74521;45.618;5.212;2024-01-15T04:07:43;7.75;6.50;3.25
84339;PMS7003;74521;45.618;5.212;2024-01-15T04:10:10;8.25;5.00;3.25
84339;PMS7003;74521;45.618;5.212;2024-01-15T04:12:36;6.75;4.75;3.50
84339;PMS7003;74521;45.618;5.212;2024-01-15T04:15:03;6.25;6.25;5.00
84339;PMS7003;74521;45.618;5.212;2024-01-15T04:17:30;10.25;6.00;5.00
84339;PMS7003;74521;45.618;5.212;2024-01-15T04:19:57;5.00;5.00;4.00
84339;PMS7003;74521;45.618;5.212;2024-01-15T04:22:24;5.25;4.00;3.00
84339;PMS7003;74521;45.618;5.212;2024-01-15T04:24:52;6.50;6.25;4.75
84339;PMS7003;74521;45.618;5.212;2024-01-15T04:27:19;7.50;6.25;4.25
84339;PMS7003;74521;45.618;5.212;2024-01-15T04:29:45;4.50;4.50;4.00
84339;PMS7003;74521;45.618;5.212;2024-01-15T04:32:12;8.00;6.00;4.00
84339;PMS7003;74521;45.618;5.212;2024-01-15T04:34:39;6.50;6.50;4.25
84339;PMS7003;74521;45.618;5.212;2024-01-15T04:37:05;6.00;4.50;3.25
84339;PMS7003;74521;45.618;5.212;2024-01-15T04:39:32;5.50;4.25;4.00
84339;PMS7003;74521;45.618;5.212;2024-01-15T04:42:00;7.75;6.75;4.00
84339;PMS7003;74521;45.618;5.212;2024-01-15T04:44:26;7.00;7.00;5.00
84339;PMS7003;74521;45.618;5.212;2024-01-15T04:46:53;6.50;6.00;5.00
84339;PMS7003;74521;45.618;5.212;2024-01-15T04:49:20;6.00;4.50;3.00
84339;PMS7003;74521;45.618;5.212;2024-01-15T04:51:46;7.75;7.00;5.00
84339;PMS7003;74521;45.618;5.212;2024-01-15T04:54:13;5.75;5.75;4.00
84339;PMS7003;74521;45.618;5.212;2024-01-15T04:56:42;8.25;7.00;5.00
84339;PMS7003;74521;45.618;5.212;2024-01-15T04:59:10;6.50;6.25;5.00
84339;PMS7003;74521;45.618;5.212;2024-01-15T05:01:37;10.00;6.00;5.50
84339;PMS7003;74521;45.618;5.212;2024-01-15T05:04:04;6.00;4.50;3.25
84339;PMS7003;74521;45.618;5.212;2024-01-15T05:06:30;7.00;4.00;4.00
84339;PMS7003;74521;45.618;5.212;2024-01-15T05:08:57;6.25;6.25;5.00
84339;PMS7003;74521;45.618;5.212;2024-01-15T05:11:24;5.00;5.00;4.50
84339;PMS7003;74521;45.618;5.212;2024-01-15T05:13:51;6.50;6.25;4.50
84339;PMS7003;74521;45.618;5.212;2024-01-15T05:16:19;8.00;4.00;3.00
84339;PMS7003;74521;45.618;5.212;2024-01-15T05:18:46;7.25;6.00;4.25
84339;PMS7003;74521;45.618;5.212;2024-01-15T05:21:12;8.00;8.00;5.00
84339;PMS7003;74521;45.618;5.212;2024-01-15T05:23:39;7.25;6.00;4.00
84339;PMS7003;74521;45.618;5.212;2024-01-15T05:26:05;4.00;4.00;3.00
84339;PMS7003;74521;45.618;5.212;2024-01-15T05:28:34;9.00;6.25;4.50
84339;PMS7003;74521;45.618;5.212;2024-01-15T05:31:00;9.50;5.00;4.00
84339;PMS7003;74521;45.618;5.212;2024-01-15T05:33:28;6.25;4.25;3.00
84339;PMS7003;74521;45.618;5.212;2024-01-15T05:35:55;9.00;6.25;5.00
84339;PMS7003;74521;45.618;5.212;2024-01-15T05:38:23;10.75;6.00;4.50
84339;PMS7003;74521;45.618;5.212;2024-01-15T05:40:50;7.00;5.00;4.00
84339;PMS7003;74521;45.618;5.212;2024-01-15T05:43:17;9.25;6.75;5.00
84339;PMS7003;74521;45.618;5.212;2024-01-15T05:45:43;4.00;2.00;1.00
84339;PMS7003;74521;45.618;5.212;2024-01-15T05:48:10;7.00;6.00;4.75
84339;PMS7003;74521;45.618;5.212;2024-01-15T05:50:38;5.00;5.00;3.75
84339;PMS7003;74521;45.618;5.212;2024-01-15T05:53:05;7.25;4.00;3.00
84339;PMS7003;74521;45.618;5.212;2024-01-15T05:55:31;5.00;4.75;3.75
84339;PMS7003;74521;45.618;5.212;2024-01-15T05:57:58;6.50;4.00;3.75
84339;PMS7003;74521;45.618;5.212;2024-01-15T06:00:25;7.00;6.00;4.00
84339;PMS7003;74521;45.618;5.212;2024-01-15T06:02:51;6.50;5.00;4.00
84339;PMS7003;74521;45.618;5.212;2024-01-15T06:05:18;8.00;5.00;4.00
84339;PMS7003;74521;45.618;5.212;2024-01-15T06:07:46;10.50;7.00;4.25
84339;PMS7003;74521;45.618;5.212;2024-01-15T06:10:13;5.25;5.25;3.50
84339;PMS7003;74521;45.618;5.212;2024-01-15T06:12:39;9.25;6.00;4.75
84339;PMS7003;74521;45.618;5.212;2024-01-15T06:15:06;9.25;7.75;5.00
84339;PMS7003;74521;45.618;5.212;2024-01-15T06:17:33;8.75;7.25;4.50
84339;PMS7003;74521;45.618;5.212;2024-01-15T06:20:00;6.25;4.50;3.25
84339;PMS7003;74521;45.618;5.212;2024-01-15T06:22:26;8.25;7.00;4.25
84339;PMS7003;74521;45.618;5.212;2024-01-15T06:24:54;7.00;5.75;4.00
84339;PMS7003;74521;45.618;5.212;2024-01-15T06:27:21;6.75;6.00;5.00
84339;PMS7003;74521;45.618;5.212;2024-01-15T06:29:48;8.50;6.25;3.75
84339;PMS7003;74521;45.618;5.212;2024-01-15T06:32:14;12.50;7.50;5.00
84339;PMS7003;74521;45.618;5.212;2024-01-15T06:34:41;9.50;5.75;4.25
84339;PMS7003;74521;45.618;5.212;2024-01-15T06:37:08;6.50;5.25;4.00
84339;PMS7003;74521;45.618;5.212;2024-01-15T06:39:34;6.25;4.00;3.00
84339;PMS7003;74521;45.618;5.212;2024-01-15T06:42:03;9.75;4.00;3.50
84339;PMS7003;74521;45.618;5.212;2024-01-15T06:44:30;7.50;6.25;4.75
84339;PMS7003;74521;45.618;5.212;2024-01-15T06:46:56;5.25;5.25;5.00
84339;PMS7003;74521;45.618;5.212;2024-01-15T06:49:27;6.75;6.75;5.00
84339;PMS7003;74521;45.618;5.212;2024-01-15T06:51:54;8.75;6.00;5.00
84339;PMS7003;74521;45.618;5.212;2024-01-15T06:54:20;6.25;5.50;4.25
84339;PMS7003;74521;45.618;5.212;2024-01-15T06:56:48;5.75;5.75;5.00
84339;PMS7003;74521;45.618;5.212;2024-01-15T06:59:16;8.25;7.25;5.00
84339;PMS7003;74521;45.618;5.212;2024-01-15T07:01:43;10.25;6.00;3.00
84339;PMS7003;74521;45.618;5.212;2024-01-15T07:04:09;7.00;6.00;5.00
84339;PMS7003;74521;45.618;5.212;2024-01-15T07:06:36;8.75;6.00;4.50
84339;PMS7003;74521;45.618;5.212;2024-01-15T07:09:03;7.25;5.25;4.00
84339;PMS7003;74521;45.618;5.212;2024-01-15T07:11:31;7.50;7.50;4.50
84339;PMS7003;74521;45.618;5.212;2024-01-15T07:13:57;8.00;6.50;4.75
84339;PMS7003;74521;45.618;5.212;2024-01-15T07:16:26;8.00;5.00;4.25
84339;PMS7003;74521;45.618;5.212;2024-01-15T07:18:52;7.25;7.25;5.00
84339;PMS7003;74521;45.618;5.212;2024-01-15T07:21:19;7.00;7.00;5.00
84339;PMS7003;74521;45.618;5.212;2024-01-15T07:23:46;7.00;7.00;5.00
84339;PMS7003;74521;45.618;5.212;2024-01-15T07:26:13;8.25;6.50;5.00
84339;PMS7003;74521;45.618;5.212;2024-01-15T07:28:40;8.25;8.00;5.00
84339;PMS7003;74521;45.618;5.212;2024-01-15T07:31:06;6.50;6.00;4.50
84339;PMS7003;74521;45.618;5.212;2024-01-15T07:33:35;9.00;6.25;5.00
84339;PMS7003;74521;45.618;5.212;2024-01-15T07:36:02;12.00;6.75;4.75
84339;PMS7003;74521;45.618;5.212;2024-01-15T07:38:28;7.00;5.00;3.25
84339;PMS7003;74521;45.618;5.212;2024-01-15T07:40:55;9.75;8.25;6.00
84339;PMS7003;74521;45.618;5.212;2024-01-15T07:43:22;8.00;5.75;5.00
84339;PMS7003;74521;45.618;5.212;2024-01-15T07:45:49;6.75;6.25;4.50
84339;PMS7003;74521;45.618;5.212;2024-01-15T07:48:15;7.75;6.25;4.25
84339;PMS7003;74521;45.618;5.212;2024-01-15T07:50:43;7.00;7.00;5.00
84339;PMS7003;74521;45.618;5.212;2024-01-15T07:53:10;7.75;7.75;5.25
84339;PMS7003;74521;45.618;5.212;2024-01-15T07:55:37;8.25;7.00;5.75
84339;PMS7003;74521;45.618;5.212;2024-01-15T07:58:04;7.00;7.00;5.75
84339;PMS7003;74521;45.618;5.212;2024-01-15T08:00:31;9.75;7.00;5.00
84339;PMS7003;74521;45.618;5.212;2024-01-15T08:03:00;8.75;7.00;5.00
84339;PMS7003;74521;45.618;5.212;2024-01-15T08:05:27;11.00;6.50;5.25
84339;PMS7003;74521;45.618;5.212;2024-01-15T08:07:55;10.50;7.50;5.25
84339;PMS7003;74521;45.618;5.212;2024-01-15T08:10:22;8.75;6.25;5.00
84339;PMS7003;74521;45.618;5.212;2024-01-15T08:12:49;8.25;6.50;5.00
84339;PMS7003;74521;45.618;5.212;2024-01-15T08:15:15;15.00;8.75;6.00
84339;PMS7003;74521;45.618;5.212;2024-01-15T08:17:42;9.75;7.25;5.25
84339;PMS7003;74521;45.618;5.212;2024-01-15T08:20:09;7.50;5.75;4.75
84339;PMS7003;74521;45.618;5.212;2024-01-15T08:22:38;7.75;7.50;4.00
84339;PMS7003;74521;45.618;5.212;2024-01-15T08:25:06;7.75;6.50;4.00
84339;PMS7003;74521;45.618;5.212;2024-01-15T08:27:33;6.50;6.00;5.00
84339;PMS7003;74521;45.618;5.212;2024-01-15T08:30:00;10.25;7.75;5.50
84339;PMS7003;74521;45.618;5.212;2024-01-15T08:32:26;10.50;7.00;5.00
84339;PMS7003;74521;45.618;5.212;2024-01-15T08:34:53;9.50;6.00;4.25
84339;PMS7003;74521;45.618;5.212;2024-01-15T08:37:20;10.75;8.00;6.00
84339;PMS7003;74521;45.618;5.212;2024-01-15T08:39:46;10.25;7.50;5.00
84339;PMS7003;74521;45.618;5.212;2024-01-15T08:42:14;8.75;7.00;5.25
84339;PMS7003;74521;45.618;5.212;2024-01-15T08:44:41;11.00;6.50;5.00
84339;PMS7003;74521;45.618;5.212;2024-01-15T08:47:08;14.25;8.50;5.75
84339;PMS7003;74521;45.618;5.212;2024-01-15T08:49:35;8.00;7.00;5.25
84339;PMS7003;74521;45.618;5.212;2024-01-15T08:52:02;10.00;7.00;5.00
84339;PMS7003;74521;45.618;5.212;2024-01-15T08:54:29;8.50;7.00;6.00
84339;PMS7003;74521;45.618;5.212;2024-01-15T08:56:55;10.50;8.50;6.75
84339;PMS7003;74521;45.618;5.212;2024-01-15T08:59:23;8.75;7.25;5.50
84339;PMS7003;74521;45.618;5.212;2024-01-15T09:01:51;11.75;10.75;7.75
84339;PMS7003;74521;45.618;5.212;2024-01-15T09:04:17;12.50;8.75;6.75
84339;PMS7003;74521;45.618;5.212;2024-01-15T09:06:44;8.75;8.75;5.25
84339;PMS7003;74521;45.618;5.212;2024-01-15T09:09:12;12.00;9.00;6.00
84339;PMS7003;74521;45.618;5.212;2024-01-15T09:11:38;9.75;8.00;6.00
84339;PMS7003;74521;45.618;5.212;2024-01-15T09:14:05;17.00;10.75;7.50
84339;PMS7003;74521;45.618;5.212;2024-01-15T09:16:34;14.50;11.25;8.00
84339;PMS7003;74521;45.618;5.212;2024-01-15T09:19:01;17.50;11.00;7.75
84339;PMS7003;74521;45.618;5.212;2024-01-15T09:21:28;10.50;9.00;6.00
84339;PMS7003;74521;45.618;5.212;2024-01-15T09:23:55;11.25;10.00;7.75
84339;PMS7003;74521;45.618;5.212;2024-01-15T09:26:21;15.75;13.00;9.00
84339;PMS7003;74521;45.618;5.212;2024-01-15T09:28:49;15.75;12.00;9.25
84339;PMS7003;74521;45.618;5.212;2024-01-15T09:31:15;18.00;16.00;12.00
84339;PMS7003;74521;45.618;5.212;2024-01-15T09:33:46;17.00;16.25;11.25
84339;PMS7003;74521;45.618;5.212;2024-01-15T09:36:13;26.25;19.75;11.00
84339;PMS7003;74521;45.618;5.212;2024-01-15T09:38:40;18.50;16.00;11.00
84339;PMS7003;74521;45.618;5.212;2024-01-15T09:41:07;23.25;19.00;12.50
84339;PMS7003;74521;45.618;5.212;2024-01-15T09:43:34;21.50;13.00;9.00
84339;PMS7003;74521;45.618;5.212;2024-01-15T09:46:02;23.00;16.75;10.50
84339;PMS7003;74521;45.618;5.212;2024-01-15T09:48:30;20.25;15.50;11.50
84339;PMS7003;74521;45.618;5.212;2024-01-15T09:51:00;21.25;18.25;11.75
84339;PMS7003;74521;45.618;5.212;2024-01-15T09:53:27;22.25;15.00;9.75
84339;PMS7003;74521;45.618;5.212;2024-01-15T09:55:54;19.25;15.75;10.00
84339;PMS7003;74521;45.618;5.212;2024-01-15T09:58:21;15.25;14.25;10.00
84339;PMS7003;74521;45.618;5.212;2024-01-15T10:00:49;18.25;15.75;7.75
84339;PMS7003;74521;45.618;5.212;2024-01-15T10:03:18;19.75;15.00;11.25
84339;PMS7003;74521;45.618;5.212;2024-01-15T10:05:46;20.50;16.75;11.25
84339;PMS7003;74521;45.618;5.212;2024-01-15T10:08:14;16.75;13.00;8.25
84339;PMS7003;74521;45.618;5.212;2024-01-15T10:10:41;17.75;14.00;10.00
84339;PMS7003;74521;45.618;5.212;2024-01-15T10:13:07;16.50;14.75;9.25
84339;PMS7003;74521;45.618;5.212;2024-01-15T10:15:34;20.00;17.00;11.00
84339;PMS7003;74521;45.618;5.212;2024-01-15T10:18:03;19.00;16.00;11.00
84339;PMS7003;74521;45.618;5.212;2024-01-15T10:20:31;19.75;15.75;9.00
84339;PMS7003;74521;45.618;5.212;2024-01-15T10:22:58;17.50;14.50;9.50
84339;PMS7003;74521;45.618;5.212;2024-01-15T10:25:27;17.75;16.00;9.00
84339;PMS7003;74521;45.618;5.212;2024-01-15T10:28:00;16.50;15.25;10.75
84339;PMS7003;74521;45.618;5.212;2024-01-15T10:30:27;21.75;15.50;10.50
84339;PMS7003;74521;45.618;5.212;2024-01-15T10:32:57;19.00;17.25;10.00
84339;PMS7003;74521;45.618;5.212;2024-01-15T10:35:26;18.50;16.00;10.25
84339;PMS7003;74521;45.618;5.212;2024-01-15T10:37:54;18.75;13.25;9.50
84339;PMS7003;74521;45.618;5.212;2024-01-15T10:40:20;28.25;19.00;12.25
84339;PMS7003;74521;45.618;5.212;2024-01-15T10:42:48;14.75;14.25;9.00
84339;PMS7003;74521;45.618;5.212;2024-01-15T10:45:15;19.25;16.50;10.50
84339;PMS7003;74521;45.618;5.212;2024-01-15T10:47:42;20.00;16.00;13.50
84339;PMS7003;74521;45.618;5.212;2024-01-15T10:50:09;20.25;16.75;10.25
84339;PMS7003;74521;45.618;5.212;2024-01-15T10:52:36;16.00;14.50;10.25
84339;PMS7003;74521;45.618;5.212;2024-01-15T10:55:05;21.25;14.75;9.00
84339;PMS7003;74521;45.618;5.212;2024-01-15T10:57:33;17.25;14.25;11.00
84339;PMS7003;74521;45.618;5.212;2024-01-15T11:00:02;13.00;13.00;9.00
84339;PMS7003;74521;45.618;5.212;2024-01-15T11:02:31;19.75;16.50;12.00
84339;PMS7003;74521;45.618;5.212;2024-01-15T11:04:59;19.50;16.75;10.00
84339;PMS7003;74521;45.618;5.212;2024-01-15T11:07:26;17.75;14.50;8.50
84339;PMS7003;74521;45.618;5.212;2024-01-15T11:09:53;20.50;17.00;10.75
84339;PMS7003;74521;45.618;5.212;2024-01-15T11:12:19;14.75;14.75;11.00
84339;PMS7003;74521;45.618;5.212;2024-01-15T11:14:46;21.00;18.00;12.75
84339;PMS7003;74521;45.618;5.212;2024-01-15T11:17:16;21.00;16.50;10.00
84339;PMS7003;74521;45.618;5.212;2024-01-15T11:19:43;17.50;14.50;10.00
84339;PMS7003;74521;45.618;5.212;2024-01-15T11:25:13;16.50;12.50;8.75
84339;PMS7003;74521;45.618;5.212;2024-01-15T11:27:41;17.25;15.50;10.50
84339;PMS7003;74521;45.618;5.212;2024-01-15T11:30:10;19.50;15.75;11.00
84339;PMS7003;74521;45.618;5.212;2024-01-15T11:32:39;17.50;8.75;6.75
84339;PMS7003;74521;45.618;5.212;2024-01-15T11:35:07;21.25;15.50;11.25
84339;PMS7003;74521;45.618;5.212;2024-01-15T11:40:35;14.75;14.75;10.25
84339;PMS7003;74521;45.618;5.212;2024-01-15T11:43:04;18.00;15.25;9.50
84339;PMS7003;74521;45.618;5.212;2024-01-15T11:45:31;17.00;15.50;9.00
84339;PMS7003;74521;45.618;5.212;2024-01-15T11:50:51;18.75;13.25;9.00
84339;PMS7003;74521;45.618;5.212;2024-01-15T11:53:21;16.75;13.50;8.75
84339;PMS7003;74521;45.618;5.212;2024-01-15T11:55:59;15.75;14.25;10.00
84339;PMS7003;74521;45.618;5.212;2024-01-15T11:58:29;16.75;13.75;9.00
84339;PMS7003;74521;45.618;5.212;2024-01-15T12:00:56;18.25;14.75;8.50
84339;PMS7003;74521;45.618;5.212;2024-01-15T12:03:24;15.75;10.75;5.00
84339;PMS7003;74521;45.618;5.212;2024-01-15T12:05:52;16.25;16.00;11.25
84339;PMS7003;74521;45.618;5.212;2024-01-15T12:08:22;19.75;15.25;9.50
84339;PMS7003;74521;45.618;5.212;2024-01-15T12:10:49;17.00;13.25;10.25
84339;PMS7003;74521;45.618;5.212;2024-01-15T12:13:16;17.75;16.00;10.25
84339;PMS7003;74521;45.618;5.212;2024-01-15T12:15:43;21.50;16.00;9.50
84339;PMS7003;74521;45.618;5.212;2024-01-15T12:18:11;16.50;13.25;8.50
84339;PMS7003;74521;45.618;5.212;2024-01-15T12:20:41;15.25;15.25;9.75
84339;PMS7003;74521;45.618;5.212;2024-01-15T12:23:09;15.75;12.50;9.00
84339;PMS7003;74521;45.618;5.212;2024-01-15T12:25:36;10.00;6.75;4.00
84339;PMS7003;74521;45.618;5.212;2024-01-15T12:28:03;19.50;14.00;10.50
84339;PMS7003;74521;45.618;5.212;2024-01-15T12:30:32;20.50;14.50;10.00
84339;PMS7003;74521;45.618;5.212;2024-01-15T12:33:01;14.50;12.00;7.00
84339;PMS7003;74521;45.618;5.212;2024-01-15T12:35:28;16.50;12.50;8.00
84339;PMS7003;74521;45.618;5.212;2024-01-15T12:37:57;16.25;11.00;8.00
84339;PMS7003;74521;45.618;5.212;2024-01-15T12:40:27;20.00;16.00;10.00
84339;PMS7003;74521;45.618;5.212;2024-01-15T12:42:54;12.75;11.25;8.00
84339;PMS7003;74521;45.618;5.212;2024-01-15T12:45:20;15.00;12.75;8.75
84339;PMS7003;74521;45.618;5.212;2024-01-15T12:47:47;16.75;13.00;8.75
84339;PMS7003;74521;45.618;5.212;2024-01-15T12:50:16;15.75;12.00;9.00
84339;PMS7003;74521;45.618;5.212;2024-01-15T12:52:42;10.00;9.00;8.00
84339;PMS7003;74521;45.618;5.212;2024-01-15T12:55:11;15.75;12.75;10.00
84339;PMS7003;74521;45.618;5.212;2024-01-15T12:57:38;13.00;10.75;7.00
84339;PMS7003;74521;45.618;5.212;2024-01-15T13:00:05;11.25;7.75;6.00
84339;PMS7003;74521;45.618;5.212;2024-01-15T13:02:37;16.75;15.25;8.25
84339;PMS7003;74521;45.618;5.212;2024-01-15T13:05:05;12.50;11.75;8.00
84339;PMS7003;74521;45.618;5.212;2024-01-15T13:07:33;20.25;13.25;8.50
84339;PMS7003;74521;45.618;5.212;2024-01-15T13:10:00;14.50;12.50;8.00
84339;PMS7003;74521;45.618;5.212;2024-01-15T13:12:28;15.00;13.75;8.75
84339;PMS7003;74521;45.618;5.212;2024-01-15T13:14:54;14.50;11.50;8.00
84339;PMS7003;74521;45.618;5.212;2024-01-15T13:17:21;16.00;11.25;8.00
84339;PMS7003;74521;45.618;5.212;2024-01-15T13:19:48;18.75;12.25;8.00
84339;PMS7003;74521;45.618;5.212;2024-01-15T13:22:14;13.50;11.50;8.00
84339;PMS7003;74521;45.618;5.212;2024-01-15T13:24:41;14.00;6.25;3.25
84339;PMS7003;74521;45.618;5.212;2024-01-15T13:27:08;13.25;10.25;8.00
84339;PMS7003;74521;45.618;5.212;2024-01-15T13:29:36;14.75;11.25;9.00
84339;PMS7003;74521;45.618;5.212;2024-01-15T13:32:03;15.50;12.25;8.75
84339;PMS7003;74521;45.618;5.212;2024-01-15T13:34:30;10.25;10.25;7.25
84339;PMS7003;74521;45.618;5.212;2024-01-15T13:36:57;14.50;11.50;9.00
84339;PMS7003;74521;45.618;5.212;2024-01-15T13:39:24;13.50;10.00;7.75
84339;PMS7003;74521;45.618;5.212;2024-01-15T13:41:50;12.00;10.25;8.25
84339;PMS7003;74521;45.618;5.212;2024-01-15T13:44:17;16.00;11.25;6.50
84339;PMS7003;74521;45.618;5.212;2024-01-15T13:46:45;15.75;14.75;8.25
84339;PMS7003;74521;45.618;5.212;2024-01-15T13:49:12;11.00;11.00;8.25
84339;PMS7003;74521;45.618;5.212;2024-01-15T13:51:39;16.25;12.00;8.25
84339;PMS7003;74521;45.618;5.212;2024-01-15T13:54:06;13.25;11.00;7.75
84339;PMS7003;74521;45.618;5.212;2024-01-15T13:56:33;13.25;10.25;8.00
84339;PMS7003;74521;45.618;5.212;2024-01-15T13:59:00;14.00;13.00;9.00
84339;PMS7003;74521;45.618;5.212;2024-01-15T14:01:29;12.75;12.50;8.00
84339;PMS7003;74521;45.618;5.212;2024-01-15T14:03:57;14.50;11.00;8.00
84339;PMS7003;74521;45.618;5.212;2024-01-15T14:06:24;14.00;11.25;7.75
84339;PMS7003;74521;45.618;5.212;2024-01-15T14:08:51;14.00;12.00;7.00
84339;PMS7003;74521;45.618;5.212;2024-01-15T14:11:18;14.00;10.75;8.00
84339;PMS7003;74521;45.618;5.212;2024-01-15T14:13:45;5.00;4.50;2.50
84339;PMS7003;74521;45.618;5.212;2024-01-15T14:16:12;13.75;9.75;7.00
84339;PMS7003;74521;45.618;5.212;2024-01-15T14:18:39;15.00;9.25;7.50